Time;durP1;ratioP1;P1;durP2;ratioP2;P2;SDS_P1;SDS_P2;PMS_P1;PMS_P2;Temp;Humidity;BMP_temperature;BMP_pressure;BME280_temperature;BME280_humidity;BME280_pressure;Samples;Min_cycle;Max_cycle;Signal;HPM_P1;HPM_P2
2022/12/24 10:38:01;;;;;;;;;1.75;1.75;;;;;13.59;100.00;101391.28;5145902;23;49670;-73
2022/12/24 10:40:39;;;;;;;;;1.25;1.25;;;;;13.16;100.00;101310.47;4912850;28;49719;-92
2022/12/24 10:43:14;;;;;;;;;1.00;1.00;;;;;12.92;100.00;101270.44;4913308;28;50878;-76
2022/12/24 10:45:43;;;;;;;;;2.00;2.00;;;;;13.71;100.00;101385.38;4913469;28;49710;-74
2022/12/24 10:48:19;;;;;;;;;1.50;1.50;;;;;13.57;100.00;101350.81;4912881;28;50069;-74
2022/12/24 10:50:56;;;;;;;;;2.00;2.00;;;;;13.05;100.00;101251.38;4913336;28;49869;-77
2022/12/24 10:56:03;;;;;;;;;4.25;3.00;;;;;13.90;100.00;101386.56;5291396;23;49665;-73
2022/12/24 10:58:29;;;;;;;;;2.75;1.50;;;;;13.94;100.00;101386.66;4951505;28;49843;-73
2022/12/24 11:00:55;;;;;;;;;1.25;1.25;;;;;14.00;100.00;101380.59;4952016;28;49728;-73
2022/12/24 11:03:32;;;;;;;;;2.50;1.25;;;;;14.04;100.00;101380.66;4951691;28;49869;-73
2022/12/24 11:06:11;;;;;;;;;1.25;1.25;;;;;14.06;100.00;101375.38;4951854;28;49763;-79
2022/12/24 11:08:42;;;;;;;;;2.25;2.25;;;;;14.11;100.00;101376.38;4951735;28;49801;-73
2022/12/24 11:11:15;;;;;;;;;2.75;1.00;;;;;14.01;100.00;101364.78;4952074;28;49747;-72
2022/12/24 11:13:52;;;;;;;;;3.50;2.00;;;;;13.93;100.00;101337.34;4958037;28;50632;-74
2022/12/24 11:16:35;;;;;;;;;2.00;1.75;;;;;14.06;100.00;101354.28;4965171;28;49677;-71
2022/12/24 11:19:14;;;;;;;;;2.75;2.75;;;;;14.18;100.00;101359.72;4970272;28;49860;-72
2022/12/24 11:21:40;;;;;;;;;4.75;1.75;;;;;13.49;100.00;101254.81;4970415;28;49650;-73
2022/12/24 11:24:25;;;;;;;;;1.25;1.25;;;;;14.22;100.00;101343.09;4969775;28;49729;-74
2022/12/24 11:26:50;;;;;;;;;1.50;1.50;;;;;14.03;100.00;101306.72;4970465;28;49817;-76
2022/12/24 11:29:26;;;;;;;;;1.50;1.50;;;;;14.05;100.00;101326.09;4970408;28;49699;-74
2022/12/24 11:32:08;;;;;;;;;2.00;1.00;;;;;14.30;100.00;101357.31;4970321;28;49969;-73
2022/12/24 11:34:34;;;;;;;;;2.00;1.00;;;;;14.26;100.00;101354.56;4969833;28;50585;-74
2022/12/24 11:37:18;;;;;;;;;4.75;1.75;;;;;14.32;100.00;101363.50;4971261;28;50122;-75
2022/12/24 11:39:48;;;;;;;;;2.75;2.50;;;;;14.08;100.00;101328.78;4973280;28;49857;-75
2022/12/24 11:42:46;;;;;;;;;1.50;0.25;;;;;14.28;100.00;101351.13;4973866;28;49806;-74
2022/12/24 11:45:26;;;;;;;;;1.75;1.75;;;;;14.44;100.00;101365.41;4929669;28;50522;-68
2022/12/24 11:47:53;;;;;;;;;3.00;3.00;;;;;14.46;100.00;101363.72;4973611;28;49536;-74
2022/12/24 11:50:18;;;;;;;;;3.25;2.50;;;;;14.50;100.00;101372.59;4973574;28;49802;-78
2022/12/24 11:52:48;;;;;;;;;1.00;1.00;;;;;14.19;100.00;101314.00;4973633;28;49914;-71
2022/12/24 11:55:28;;;;;;;;;3.50;2.00;;;;;14.08;100.00;101288.28;4973040;28;49869;-77
2022/12/24 11:58:18;;;;;;;;;2.25;2.00;;;;;14.50;100.00;101375.25;4973477;28;49876;-73
2022/12/24 12:00:46;;;;;;;;;4.00;3.00;;;;;14.45;100.00;101371.63;4973559;28;49844;-65
2022/12/24 12:03:35;;;;;;;;;1.75;1.75;;;;;14.46;100.00;101360.19;4973822;28;49802;-69
2022/12/24 12:06:09;;;;;;;;;3.00;2.00;;;;;14.49;100.00;101366.44;4973511;28;50846;-69
2022/12/24 12:08:36;;;;;;;;;1.25;1.00;;;;;14.10;100.00;101268.09;4973338;28;49823;-68
2022/12/24 12:11:11;;;;;;;;;2.00;2.00;;;;;14.11;100.00;101267.22;4973226;28;49967;-68
2022/12/24 12:13:38;;;;;;;;;5.00;2.00;;;;;14.52;100.00;101333.88;4973427;28;49856;-68
2022/12/24 12:16:24;;;;;;;;;0.75;0.75;;;;;14.46;100.00;101308.25;4973135;28;50568;-70
2022/12/24 12:19:05;;;;;;;;;2.25;2.25;;;;;14.57;100.00;101313.66;4973205;28;49871;-71
2022/12/24 12:21:50;;;;;;;;;2.00;2.00;;;;;14.48;100.00;101281.88;4973414;28;49773;-70
2022/12/24 12:24:25;;;;;;;;;2.25;0.50;;;;;14.81;100.00;101331.59;4973248;28;49665;-68
2022/12/24 12:27:08;;;;;;;;;1.75;1.50;;;;;14.85;100.00;101336.94;4955343;28;50932;-72
2022/12/24 12:29:43;;;;;;;;;4.50;2.50;;;;;14.83;100.00;101306.97;4972986;28;49841;-76
2022/12/24 12:32:19;;;;;;;;;3.00;3.00;;;;;14.73;100.00;101301.56;4973319;28;49836;-66
2022/12/24 12:35:14;;;;;;;;;2.00;2.00;;;;;14.59;100.00;101260.00;4973476;28;50003;-73
2022/12/24 12:37:45;;;;;;;;;2.50;2.00;;;;;14.90;100.00;101326.44;4973006;28;50810;-78
2022/12/24 12:40:15;;;;;;;;;0.75;0.75;;;;;14.69;100.00;101324.41;4972995;28;49884;-80
2022/12/24 12:42:51;;;;;;;;;4.00;2.25;;;;;14.69;100.00;101352.59;4973774;28;49765;-70
2022/12/24 12:45:40;;;;;;;;;2.75;1.50;;;;;14.36;100.00;101331.84;4973649;28;49813;-81
2022/12/24 12:48:27;;;;;;;;;2.75;2.50;;;;;14.49;100.00;101361.13;4955248;28;51297;-75
2022/12/24 12:51:14;;;;;;;;;4.75;2.75;;;;;14.37;100.00;101360.03;4973379;28;49683;-76
2022/12/24 12:54:11;;;;;;;;;2.25;1.00;;;;;14.32;100.00;101360.84;4972748;28;49682;-75
2022/12/24 12:56:38;;;;;;;;;4.25;3.00;;;;;14.06;100.00;101297.94;4953960;28;50293;-73
2022/12/24 12:59:20;;;;;;;;;6.75;3.50;;;;;14.42;100.00;101350.44;4954046;28;50616;-71
2022/12/24 13:01:56;;;;;;;;;1.75;1.75;;;;;14.38;100.00;101341.59;4954289;28;50053;-77
2022/12/24 13:04:54;;;;;;;;;3.00;2.00;;;;;13.04;100.00;101134.53;4954130;28;49902;-78
2022/12/24 13:07:43;;;;;;;;;4.50;4.50;;;;;14.52;100.00;101362.94;4967850;28;49942;-87
2022/12/24 13:10:21;;;;;;;;;6.00;4.00;;;;;14.53;100.00;101347.09;4970381;28;52458;-78
2022/12/24 13:13:02;;;;;;;;;3.00;3.00;;;;;14.52;100.00;101345.31;4954635;28;50055;-79
2022/12/24 13:15:42;;;;;;;;;3.50;1.25;;;;;14.52;100.00;101345.31;4953859;28;49759;-77
2022/12/24 13:18:10;;;;;;;;;2.00;2.00;;;;;14.51;100.00;101342.66;4953909;28;50082;-76
2022/12/24 13:20:46;;;;;;;;;2.75;1.75;;;;;14.07;100.00;101266.28;4935829;28;52608;-78
2022/12/24 13:23:19;;;;;;;;;4.50;2.00;;;;;14.33;100.00;101304.53;4957726;28;49735;-77
2022/12/24 13:25:50;;;;;;;;;2.00;1.00;;;;;13.74;100.00;101193.69;4953630;28;49619;-81
2022/12/24 13:28:21;;;;;;;;;4.50;3.00;;;;;14.48;100.00;101324.13;4958111;28;49798;-78
2022/12/24 13:30:53;;;;;;;;;1.25;1.25;;;;;14.36;100.00;101295.75;4972104;28;50956;-79
2022/12/24 13:33:36;;;;;;;;;1.75;1.75;;;;;14.49;100.00;101326.81;4970930;28;49795;-79
2022/12/24 13:36:12;;;;;;;;;5.00;3.50;;;;;14.49;100.00;101318.00;4972188;28;49987;-75
2022/12/24 13:38:38;;;;;;;;;2.00;1.75;;;;;14.48;100.00;101324.13;4971969;28;50027;-76
2022/12/24 13:41:32;;;;;;;;;3.00;1.00;;;;;14.46;100.00;101326.72;4971787;28;50871;-77
2022/12/24 13:44:11;;;;;;;;;2.50;2.50;;;;;13.25;100.00;101114.69;4971936;28;49722;-76
2022/12/24 13:47:03;;;;;;;;;5.75;3.25;;;;;14.42;100.00;101314.31;4953430;28;50004;-76
2022/12/24 13:49:43;;;;;;;;;2.50;1.50;;;;;14.45;100.00;101318.78;4953543;28;49734;-74
2022/12/24 13:52:13;;;;;;;;;2.00;2.00;;;;;14.44;100.00;101315.22;4958779;28;49980;-73
2022/12/24 13:55:08;;;;;;;;;2.00;2.00;;;;;14.43;100.00;101312.56;4961832;28;49993;-68
2022/12/24 13:57:40;;;;;;;;;3.75;3.00;;;;;13.79;100.00;101248.25;4961753;28;49773;-67
2022/12/24 14:00:12;;;;;;;;;5.75;2.00;;;;;14.36;100.00;101338.00;4964790;28;49854;-70
2022/12/24 14:02:52;;;;;;;;;3.00;2.00;;;;;14.31;100.00;101329.16;4969325;28;49886;-73
2022/12/24 14:05:47;;;;;;;;;4.75;2.25;;;;;13.99;100.00;101275.84;4965659;28;49843;-68
2022/12/24 14:08:21;;;;;;;;;3.50;2.75;;;;;14.28;100.00;101335.28;4985710;28;49528;-70
2022/12/24 14:11:06;;;;;;;;;4.00;2.50;;;;;14.13;100.00;101313.03;4988832;28;49401;-69
2022/12/24 14:13:37;;;;;;;;;2.00;2.00;;;;;14.23;100.00;101333.41;4989275;28;50188;-73
2022/12/24 14:16:08;;;;;;;;;1.50;1.00;;;;;14.21;100.00;101336.03;4978635;28;49541;-74
2022/12/24 14:18:39;;;;;;;;;6.25;3.75;;;;;13.78;100.00;101264.97;4984351;28;50058;-67
2022/12/24 14:21:14;;;;;;;;;2.75;2.50;;;;;14.20;100.00;101336.91;4981863;28;49587;-77
2022/12/24 14:23:54;;;;;;;;;3.25;2.75;;;;;14.22;100.00;101356.31;4980469;28;49885;-73
2022/12/24 14:26:23;;;;;;;;;2.25;2.00;;;;;13.91;100.00;101304.78;4940863;28;50143;-72
2022/12/24 14:28:56;;;;;;;;;3.75;2.50;;;;;14.12;100.00;101345.56;4967149;28;49929;-71
2022/12/24 14:31:22;;;;;;;;;5.00;3.25;;;;;14.23;100.00;101373.91;4959251;28;49759;-75
2022/12/24 14:33:47;;;;;;;;;4.50;3.25;;;;;14.23;100.00;101360.72;4967001;28;50352;-77
2022/12/24 14:36:20;;;;;;;;;3.50;3.50;;;;;13.68;100.00;101263.94;4971773;28;49720;-74
2022/12/24 14:38:45;;;;;;;;;2.75;2.75;;;;;12.83;100.00;101127.13;4965083;28;49821;-77
2022/12/24 14:41:16;;;;;;;;;6.50;4.00;;;;;14.27;100.00;101351.97;4965805;28;49939;-76
2022/12/24 14:44:09;;;;;;;;;3.00;2.75;;;;;13.96;100.00;101311.00;4963828;28;49855;-71
2022/12/24 14:46:45;;;;;;;;;3.75;2.00;;;;;14.24;100.00;101362.47;4947630;28;49863;-73
2022/12/24 14:49:47;;;;;;;;;4.75;4.75;;;;;14.21;100.00;101362.44;4953682;28;49644;-73
2022/12/24 14:52:17;;;;;;;;;3.00;3.00;;;;;14.18;100.00;101351.81;4952520;28;50076;-71
2022/12/24 14:54:46;;;;;;;;;2.75;2.00;;;;;14.03;100.00;101355.13;4967800;28;50526;-79
2022/12/24 14:57:26;;;;;;;;;3.50;3.00;;;;;13.86;100.00;101302.91;4937817;28;49797;-79
2022/12/24 14:59:57;;;;;;;;;5.50;3.50;;;;;12.78;100.00;101123.53;4962307;28;50238;-83
2022/12/24 15:02:44;;;;;;;;;3.00;3.00;;;;;14.16;100.00;101345.63;4957614;28;49901;-74
2022/12/24 15:05:18;;;;;;;;;4.25;3.25;;;;;14.13;100.00;101365.81;4961431;28;51145;-79
2022/12/24 15:07:55;;;;;;;;;8.25;5.75;;;;;13.01;100.00;101191.56;4960990;28;49679;-91
2022/12/24 15:10:45;;;;;;;;;4.50;4.50;;;;;14.14;100.00;101347.38;4959575;28;49902;-81
2022/12/24 15:13:20;;;;;;;;;3.00;3.00;;;;;14.13;100.00;101350.88;4944821;28;50392;-80
2022/12/24 15:15:47;;;;;;;;;3.75;3.75;;;;;13.40;100.00;101228.28;4973392;28;50022;-79
2022/12/24 15:18:20;;;;;;;;;2.00;2.00;;;;;13.54;100.00;101292.72;4969204;28;49903;-79
2022/12/24 15:20:49;;;;;;;;;3.75;3.75;;;;;12.84;100.00;101178.97;4964908;28;49794;-82
2022/12/24 15:23:24;;;;;;;;;4.50;4.50;;;;;14.04;100.00;101348.97;4958245;28;49693;-75
2022/12/24 15:26:12;;;;;;;;;5.00;3.00;;;;;13.74;100.00;101306.25;4965791;28;49875;-74
2022/12/24 15:28:38;;;;;;;;;5.00;5.00;;;;;13.92;100.00;101351.41;4952103;28;49979;-74
2022/12/24 15:31:11;;;;;;;;;3.50;3.50;;;;;13.67;100.00;101312.28;4962847;28;49860;-77
2022/12/24 15:33:37;;;;;;;;;13.50;7.00;;;;;13.96;100.00;101363.78;4952306;28;50005;-79
2022/12/24 15:36:05;;;;;;;;;6.00;6.00;;;;;13.77;100.00;101329.16;4959474;28;50161;-79
2022/12/24 15:38:36;;;;;;;;;6.00;5.00;;;;;13.89;100.00;101350.47;4975924;28;49730;-73
2022/12/24 15:41:07;;;;;;;;;7.25;6.25;;;;;12.97;100.00;101226.63;4964088;28;49394;-81
2022/12/24 15:43:39;;;;;;;;;3.50;2.00;;;;;13.08;100.00;101235.63;4972295;28;49870;-80
2022/12/24 15:46:04;;;;;;;;;5.25;4.00;;;;;13.65;100.00;101314.91;4967450;28;50688;-79
2022/12/24 15:48:31;;;;;;;;;6.75;4.75;;;;;13.74;100.00;101340.56;4958453;28;49939;-69
2022/12/24 15:51:00;;;;;;;;;9.00;6.75;;;;;13.36;100.00;101279.22;4956791;28;49833;-71
2022/12/24 15:53:42;;;;;;;;;5.25;5.25;;;;;13.73;100.00;101349.34;4964322;28;49755;-78
2022/12/24 15:56:29;;;;;;;;;5.25;4.50;;;;;13.71;100.00;101349.31;4957796;28;50550;-69
2022/12/24 15:59:10;;;;;;;;;4.00;4.00;;;;;13.68;100.00;101357.16;4961821;28;49770;-74
2022/12/24 16:01:36;;;;;;;;;3.00;3.00;;;;;13.63;100.00;101353.56;4966187;28;49717;-72
2022/12/24 16:04:13;;;;;;;;;5.00;4.75;;;;;13.66;100.00;101361.53;4970288;28;50083;-70
2022/12/24 16:07:01;;;;;;;;;8.25;5.75;;;;;13.63;100.00;101358.84;4953688;28;50398;-69
2022/12/24 16:09:40;;;;;;;;;9.50;5.50;;;;;13.63;100.00;101357.94;4950985;28;49851;-70
2022/12/24 16:12:14;;;;;;;;;6.00;3.00;;;;;13.38;100.00;101331.13;4960895;28;49989;-71
2022/12/24 16:14:40;;;;;;;;;6.50;4.75;;;;;13.61;100.00;101363.22;4964146;28;49897;-74
2022/12/24 16:17:18;;;;;;;;;4.00;4.00;;;;;13.57;100.00;101361.34;4969545;28;52291;-73
2022/12/24 16:19:47;;;;;;;;;5.00;5.00;;;;;13.58;100.00;101373.69;4970031;28;49763;-76
2022/12/24 16:22:30;;;;;;;;;5.25;5.25;;;;;13.40;100.00;101339.94;4969324;28;50087;-75
2022/12/24 16:24:56;;;;;;;;;5.00;3.75;;;;;13.44;100.00;101367.28;4967643;28;50016;-75
2022/12/24 16:27:22;;;;;;;;;3.75;3.75;;;;;13.47;100.00;101367.31;4979218;28;51576;-75
2022/12/24 16:29:47;;;;;;;;;5.50;3.50;;;;;12.78;100.00;101278.09;4956849;28;49820;-76
2022/12/24 16:32:40;;;;;;;;;4.00;4.00;;;;;13.35;100.00;101365.34;4965810;28;49768;-76
2022/12/24 16:35:22;;;;;;;;;6.25;5.00;;;;;12.42;100.00;101222.91;4965181;28;49649;-75
2022/12/24 16:37:47;;;;;;;;;5.00;5.00;;;;;12.65;100.00;101260.28;4970106;28;49899;-73
2022/12/24 16:40:14;;;;;;;;;3.75;3.75;;;;;13.22;100.00;101350.16;4964941;28;49895;-75
2022/12/24 16:45:37;;;;;;;;;8.50;8.50;;;;;13.45;100.00;101395.44;4932120;28;49918;-77
2022/12/24 16:48:05;;;;;;;;;4.50;3.50;;;;;13.14;100.00;101346.47;4954441;28;49759;-76
2022/12/24 16:50:31;;;;;;;;;3.75;3.25;;;;;13.44;100.00;101383.09;4954454;28;49715;-72
2022/12/24 16:52:56;;;;;;;;;5.00;3.25;;;;;13.23;100.00;101351.94;4963702;28;49840;-75
2022/12/24 16:55:21;;;;;;;;;7.75;4.50;;;;;13.25;100.00;101357.25;4954364;28;49742;-74
2022/12/24 16:57:46;;;;;;;;;7.25;5.00;;;;;13.32;100.00;101362.66;4953846;28;70727;-75
2022/12/24 17:00:18;;;;;;;;;6.50;5.00;;;;;13.42;100.00;101380.44;4956410;28;49970;-72
2022/12/24 17:02:44;;;;;;;;;6.00;4.75;;;;;13.40;100.00;101378.59;4969026;28;49857;-75
2022/12/24 17:05:10;;;;;;;;;5.50;5.50;;;;;13.37;100.00;101376.81;4954373;28;49674;-72
2022/12/24 17:07:35;;;;;;;;;4.25;4.25;;;;;13.21;100.00;101358.03;4968175;28;51498;-74
2022/12/24 17:10:01;;;;;;;;;9.00;6.00;;;;;13.34;100.00;101387.31;4968797;28;49739;-73
2022/12/24 17:12:26;;;;;;;;;6.75;5.25;;;;;13.34;100.00;101386.44;4973208;28;49629;-78
2022/12/24 17:14:51;;;;;;;;;6.25;5.00;;;;;13.32;100.00;101396.94;4960315;28;49922;-75
2022/12/24 17:17:24;;;;;;;;;3.00;3.00;;;;;13.30;100.00;101410.94;4936825;28;50323;-75
2022/12/24 17:19:50;;;;;;;;;5.00;3.00;;;;;13.26;100.00;101414.38;4954025;28;49782;-75
2022/12/24 17:22:15;;;;;;;;;6.75;5.25;;;;;13.23;100.00;101414.34;4954519;28;49690;-72
2022/12/24 17:24:41;;;;;;;;;1.50;1.50;;;;;13.24;100.00;101424.00;4973262;28;49746;-75
2022/12/24 17:27:06;;;;;;;;;6.50;6.00;;;;;13.15;100.00;101411.50;4965673;28;50604;-76
2022/12/24 17:29:31;;;;;;;;;7.50;5.50;;;;;13.13;100.00;101407.94;4953703;28;56667;-75
2022/12/24 17:31:57;;;;;;;;;5.75;5.75;;;;;13.24;100.00;101430.19;4960744;28;49928;-78
2022/12/24 17:34:22;;;;;;;;;7.00;6.75;;;;;13.21;100.00;101432.72;4958010;28;49508;-78
2022/12/24 17:36:47;;;;;;;;;6.25;4.50;;;;;13.20;100.00;101443.25;4964680;28;69406;-76
2022/12/24 17:39:12;;;;;;;;;7.75;5.25;;;;;13.22;100.00;101438.88;4952864;28;55506;-77
2022/12/24 17:41:38;;;;;;;;;5.00;5.00;;;;;13.11;100.00;101423.72;4953908;28;49818;-81
2022/12/24 17:44:03;;;;;;;;;5.75;4.50;;;;;13.22;100.00;101449.44;4955987;28;49766;-72
2022/12/24 17:46:29;;;;;;;;;4.00;4.00;;;;;12.90;100.00;101403.06;4955836;28;50017;-73
2022/12/24 17:48:54;;;;;;;;;7.50;7.50;;;;;12.94;100.00;101406.66;4960671;28;49715;-75
2022/12/24 17:51:22;;;;;;;;;6.00;6.00;;;;;13.05;100.00;101405.16;4960229;28;50684;-81
2022/12/24 17:53:48;;;;;;;;;7.00;7.00;;;;;12.87;100.00;101365.22;4953860;28;49646;-81
2022/12/24 17:56:14;;;;;;;;;6.00;6.00;;;;;12.05;100.00;101230.00;4953048;28;49857;-76
2022/12/24 17:58:45;;;;;;;;;7.50;6.00;;;;;12.89;100.00;101364.41;4969682;28;49927;-82
2022/12/24 18:01:19;;;;;;;;;11.25;6.00;;;;;13.00;100.00;101376.91;4959782;28;49814;-86
2022/12/24 18:03:46;;;;;;;;;9.75;9.50;;;;;13.17;100.00;101397.47;4972613;28;49854;-80
2022/12/24 18:06:12;;;;;;;;;7.75;7.00;;;;;13.13;100.00;101376.31;4968172;28;50325;-76
2022/12/24 18:08:40;;;;;;;;;9.25;6.50;;;;;12.60;100.00;101287.38;4964184;28;49853;-79
2022/12/24 18:11:23;;;;;;;;;9.00;7.25;;;;;12.57;100.00;101289.06;4955218;28;49866;-81
2022/12/24 18:13:49;;;;;;;;;5.75;5.75;;;;;13.02;100.00;101377.81;4967117;28;49805;-78
2022/12/24 18:16:19;;;;;;;;;7.25;5.50;;;;;12.83;100.00;101345.81;4965390;28;50743;-76
2022/12/24 18:18:45;;;;;;;;;6.50;6.50;;;;;11.70;100.00;101155.56;4953196;28;49808;-83
2022/12/24 18:21:11;;;;;;;;;8.50;5.75;;;;;12.87;100.00;101378.41;4953299;28;49819;-83
2022/12/24 18:23:39;;;;;;;;;8.50;6.00;;;;;12.93;100.00;101373.25;4972012;28;49880;-70
2022/12/24 18:26:06;;;;;;;;;6.75;6.75;;;;;12.46;100.00;101302.03;4935269;28;52687;-79
2022/12/24 18:28:31;;;;;;;;;8.75;6.50;;;;;11.92;100.00;101244.66;4953168;28;50167;-75
2022/12/24 18:31:05;;;;;;;;;7.75;7.25;;;;;11.59;100.00;101204.38;4953190;28;49707;-75
2022/12/24 18:33:34;;;;;;;;;9.00;9.00;;;;;12.67;100.00;101372.69;4938882;28;49754;-76
2022/12/24 18:36:00;;;;;;;;;11.00;6.00;;;;;12.81;100.00;101399.34;4971519;28;50793;-78
2022/12/24 18:38:26;;;;;;;;;12.00;10.75;;;;;12.20;100.00;101337.41;4971192;28;49758;-76
2022/12/24 18:41:04;;;;;;;;;10.75;7.50;;;;;11.27;100.00;101164.16;4965943;28;49740;-87
2022/12/24 18:43:29;;;;;;;;;9.00;8.50;;;;;12.86;100.00;101414.41;4946537;28;50000;-72
2022/12/24 18:45:55;;;;;;;;;6.25;6.00;;;;;12.87;100.00;101410.03;4964483;28;62932;-75
2022/12/24 18:48:20;;;;;;;;;11.00;10.25;;;;;12.88;100.00;101403.88;4965800;28;49972;-74
2022/12/24 18:50:54;;;;;;;;;9.25;9.25;;;;;12.82;100.00;101390.56;4961263;28;50376;-69
2022/12/24 18:53:19;;;;;;;;;12.00;11.00;;;;;12.10;100.00;101278.41;4962581;28;49818;-67
2022/12/24 18:55:47;;;;;;;;;19.00;12.25;;;;;12.89;100.00;101417.09;4961247;28;53058;-80
2022/12/24 18:58:15;;;;;;;;;13.00;10.00;;;;;12.95;100.00;101407.56;4971962;28;49850;-78
2022/12/24 19:00:41;;;;;;;;;9.25;7.25;;;;;12.50;100.00;101330.19;4952755;28;51508;-69
2022/12/24 19:03:07;;;;;;;;;12.25;11.00;;;;;12.84;100.00;101394.16;4967468;28;49698;-72
2022/12/24 19:05:32;;;;;;;;;10.25;9.00;;;;;11.95;100.00;101236.81;4959591;28;51126;-72
2022/12/24 19:07:58;;;;;;;;;11.25;8.50;;;;;12.64;100.00;101361.19;4955912;28;49802;-72
2022/12/24 19:10:23;;;;;;;;;10.50;10.00;;;;;12.66;100.00;101351.59;4967627;28;49930;-74
2022/12/24 19:12:49;;;;;;;;;9.50;9.50;;;;;11.90;100.00;101204.28;4959435;28;49826;-73
2022/12/24 19:15:14;;;;;;;;;11.25;10.25;;;;;12.81;100.00;101367.72;4970624;28;51090;-74
2022/12/24 19:17:41;;;;;;;;;14.25;11.50;;;;;11.49;100.00;101132.28;4953398;28;49871;-74
2022/12/24 19:20:07;;;;;;;;;15.00;12.75;;;;;12.85;100.00;101353.78;4968591;28;50120;-72
2022/12/24 19:22:32;;;;;;;;;20.00;15.25;;;;;12.83;100.00;101348.44;4970148;28;49983;-71
2022/12/24 19:24:57;;;;;;;;;18.00;14.00;;;;;12.37;100.00;101282.50;4956846;28;51048;-73
2022/12/24 19:27:23;;;;;;;;;16.00;14.50;;;;;12.84;100.00;101344.09;4957741;28;49586;-72
2022/12/24 19:29:48;;;;;;;;;16.00;13.75;;;;;12.82;100.00;101343.16;4955105;28;49884;-71
2022/12/24 19:32:14;;;;;;;;;14.00;14.00;;;;;12.18;100.00;101257.50;4960038;28;49606;-73
2022/12/24 19:34:39;;;;;;;;;16.25;15.25;;;;;12.89;100.00;101371.41;4951809;28;50241;-72
2022/12/24 19:37:04;;;;;;;;;19.00;16.00;;;;;12.92;100.00;101353.03;4952044;28;49746;-72
2022/12/24 19:39:32;;;;;;;;;16.50;16.50;;;;;12.91;100.00;101367.06;4945581;28;49936;-72
2022/12/24 19:41:58;;;;;;;;;18.75;17.00;;;;;12.39;100.00;101262.34;4966615;28;49891;-70
2022/12/24 19:44:23;;;;;;;;;22.25;19.75;;;;;12.51;100.00;101283.66;4969782;28;50563;-70
2022/12/24 19:46:49;;;;;;;;;14.25;13.00;;;;;12.59;100.00;101298.78;4969348;28;49955;-71
2022/12/24 19:49:14;;;;;;;;;16.00;14.00;;;;;12.82;100.00;101343.16;4968339;28;49740;-71
2022/12/24 19:51:40;;;;;;;;;12.25;11.50;;;;;11.42;100.00;101131.25;4955266;28;49857;-71
2022/12/24 19:54:07;;;;;;;;;19.00;14.50;;;;;12.96;100.00;101360.16;4969654;28;50296;-71
2022/12/24 19:56:33;;;;;;;;;15.00;13.75;;;;;12.96;100.00;101364.53;4955837;28;49966;-70
2022/12/24 19:59:00;;;;;;;;;18.00;17.50;;;;;11.42;100.00;101115.47;4962785;28;49738;-70
2022/12/24 20:01:28;;;;;;;;;8.00;7.00;;;;;12.79;100.00;101324.66;4943468;28;49915;-69
2022/12/24 20:03:54;;;;;;;;;20.00;16.00;;;;;12.88;100.00;101335.38;4967932;28;50403;-69
2022/12/24 20:06:24;;;;;;;;;16.00;14.75;;;;;11.43;100.00;101111.13;4961643;28;49887;-69
2022/12/24 20:08:52;;;;;;;;;18.50;16.25;;;;;12.95;100.00;101350.47;4969643;28;49679;-69
2022/12/24 20:11:21;;;;;;;;;16.25;15.50;;;;;12.92;100.00;101338.97;4970236;28;49797;-70
2022/12/24 20:13:46;;;;;;;;;18.75;18.25;;;;;12.97;100.00;101347.84;4968582;28;50347;-69
2022/12/24 20:16:19;;;;;;;;;20.50;18.00;;;;;12.82;100.00;101332.59;4954849;28;49890;-70
2022/12/24 20:18:59;;;;;;;;;19.25;19.25;;;;;12.89;100.00;101327.50;4943578;28;49752;-71
2022/12/24 20:21:26;;;;;;;;;20.00;19.50;;;;;12.67;100.00;101271.72;4962409;28;49889;-68
2022/12/24 20:23:52;;;;;;;;;24.25;22.25;;;;;12.57;100.00;101271.53;4954435;28;52228;-72
2022/12/24 20:26:19;;;;;;;;;16.00;16.00;;;;;13.00;100.00;101329.47;4955030;28;49849;-68
2022/12/24 20:28:45;;;;;;;;;21.50;18.25;;;;;12.83;100.00;101322.09;4962832;28;49800;-68
2022/12/24 20:31:23;;;;;;;;;9.50;9.50;;;;;12.95;100.00;101339.03;4966462;28;50006;-71
2022/12/24 20:33:48;;;;;;;;;23.75;21.75;;;;;12.92;100.00;101350.38;4940734;28;51964;-70
2022/12/24 20:36:16;;;;;;;;;22.50;20.50;;;;;12.54;100.00;101299.53;4963624;28;49968;-70
2022/12/24 20:38:42;;;;;;;;;16.75;14.00;;;;;12.91;100.00;101359.16;4954337;28;49811;-68
2022/12/24 20:41:09;;;;;;;;;23.25;18.00;;;;;12.02;100.00;101235.22;4968537;28;51766;-69
2022/12/24 20:43:36;;;;;;;;;17.75;15.00;;;;;12.72;100.00;101331.53;4955579;28;50499;-72
2022/12/24 20:46:02;;;;;;;;;20.75;19.75;;;;;11.71;100.00;101176.63;4971797;28;49970;-69
2022/12/24 20:48:28;;;;;;;;;19.75;16.75;;;;;12.37;100.00;101261.44;4962762;28;50180;-69
2022/12/24 20:50:55;;;;;;;;;16.25;14.00;;;;;12.51;100.00;101292.47;4960425;28;49731;-70
2022/12/24 20:53:20;;;;;;;;;14.00;11.00;;;;;12.78;100.00;101331.66;4960491;28;50502;-68
2022/12/24 20:55:49;;;;;;;;;14.25;13.25;;;;;12.87;100.00;101360.84;4955724;28;49936;-68
2022/12/24 20:58:16;;;;;;;;;13.25;13.25;;;;;12.84;100.00;101334.44;4954500;28;49584;-68
2022/12/24 21:00:43;;;;;;;;;11.00;11.00;;;;;12.86;100.00;101339.75;4956734;28;50007;-70
2022/12/24 21:03:08;;;;;;;;;10.50;10.50;;;;;12.31;100.00;101286.75;4954071;28;50728;-69
2022/12/24 21:05:33;;;;;;;;;12.00;12.00;;;;;11.96;100.00;101233.31;4960504;28;49801;-68
2022/12/24 21:07:59;;;;;;;;;12.00;9.50;;;;;12.80;100.00;101335.22;4962181;28;49877;-69
2022/12/24 21:10:24;;;;;;;;;12.00;12.00;;;;;12.10;100.00;101220.50;4964551;28;50294;-68
2022/12/24 21:12:55;;;;;;;;;12.50;10.75;;;;;12.65;100.00;101315.59;4972547;28;50697;-70
2022/12/24 21:15:34;;;;;;;;;10.75;10.50;;;;;12.12;100.00;101257.38;4966938;28;49750;-69
2022/12/24 21:18:01;;;;;;;;;11.00;10.50;;;;;11.97;100.00;101197.41;4954579;28;49852;-68
2022/12/24 21:20:30;;;;;;;;;13.75;12.00;;;;;12.76;100.00;101330.75;4967070;28;49835;-68
2022/12/24 21:23:00;;;;;;;;;13.25;13.25;;;;;12.48;100.00;101283.63;4965976;28;50044;-72
2022/12/24 21:25:25;;;;;;;;;11.50;9.75;;;;;12.42;100.00;101294.88;4952728;28;49672;-68
